map of TVI home
TVI - Airport
Location
City:  Thomasville, Georgia, United States
Name:Thomasville Regional
ICAO:KTVI
IATA:TVI
FAA LID:TVI

Details
Type:Airport (Airfield)
Use:Public/Civil
Latitude:3054'05"N (30.901472)
Longitude:8352'53"W (-83.881443)
Datum:WGS 1984
Elevation:263 ft (80 m)
Variation:5.07W (WMM2015 magnetic declination)
-0.09 annual change
Runways:2
Longest:6004 × 101 ft (1830 × 31 m), paved

Time
Time Zone:UTC-5 (DST-4)
Local Time:

Weather
METAR:KTVI 210615Z AUTO 08004KT 10SM SCT035 SCT041 19/19 A3018 RMK AO2

Related Locations
Nearby:
Farthest:USL: 11345 mi / 18259 km
Useless Loop, WA, AU

Find:

   beyond  
but within

Other Information
Maps:
NOTAMs:
Links:
Sources:

  
flag of United States
flag of Georgia
  

Sectional Chart

Flight Planning
at skyvector.com

Satellite Image

Google Maps Satellite view

 

Copyright © 2004-2017 Karl L. Swartz. All rights reserved.
The Great Circle Mapper name and logo are trademarks of the Great Circle Mapper.
All other trademarks mentioned herein belong to their respective owners.
Please see credits for attibutions and further copyright information.

  Follow gcmap on Facebook Follow gcmap on Twitter Follow gcmap on Google+ GCmap on LinkedIn

hCard Microformat

Geo Microformat